Time;durP1;ratioP1;P1;durP2;ratioP2;P2;SDS_P1;SDS_P2;PMS_P1;PMS_P2;Temp;Humidity;BMP_temperature;BMP_pressure;BME280_temperature;BME280_humidity;BME280_pressure;Samples;Min_cycle;Max_cycle;Signal;HPM_P1;HPM_P2
2023/05/07 00:02:25;;;;;;;8.32;5.03;;;15.90;99.90;;;;;;5007230;28;20061;-76
2023/05/07 00:04:51;;;;;;;9.10;5.88;;;15.90;99.90;;;;;;5007481;28;20059;-76
2023/05/07 00:07:20;;;;;;;9.48;5.15;;;15.90;99.90;;;;;;4993212;28;20381;-77
2023/05/07 00:09:45;;;;;;;14.15;4.38;;;15.80;99.90;;;;;;5007631;28;20576;-77
2023/05/07 00:12:11;;;;;;;9.80;5.32;;;15.80;99.90;;;;;;5004024;28;20110;-76
2023/05/07 00:14:39;;;;;;;15.05;5.57;;;15.80;99.90;;;;;;4990540;28;20057;-77
2023/05/07 00:17:05;;;;;;;8.60;5.53;;;15.80;99.90;;;;;;5007854;28;20046;-77
2023/05/07 00:19:31;;;;;;;9.10;5.57;;;15.70;99.90;;;;;;5011751;28;20053;-77
2023/05/07 00:21:58;;;;;;;11.38;6.35;;;15.70;99.90;;;;;;5004189;28;20026;-76
2023/05/07 00:24:26;;;;;;;8.23;5.93;;;15.70;99.90;;;;;;5009394;28;20033;-78
2023/05/07 00:26:52;;;;;;;12.55;6.40;;;15.70;99.90;;;;;;5011633;28;20421;-77
2023/05/07 00:29:18;;;;;;;12.88;7.72;;;15.60;99.90;;;;;;5006128;28;20052;-77
2023/05/07 00:31:44;;;;;;;7.30;5.95;;;15.60;99.90;;;;;;4990440;28;20088;-77
2023/05/07 00:34:09;;;;;;;10.45;5.18;;;15.60;99.90;;;;;;5009590;28;20034;-76
2023/05/07 00:36:38;;;;;;;11.88;5.75;;;15.60;99.90;;;;;;5005447;28;20018;-77
2023/05/07 00:39:03;;;;;;;10.23;5.15;;;15.50;99.90;;;;;;5009865;28;20022;-77
2023/05/07 00:41:32;;;;;;;7.28;4.55;;;15.50;99.90;;;;;;5004214;28;20084;-77
2023/05/07 00:43:58;;;;;;;6.97;4.85;;;15.50;99.90;;;;;;5010289;28;20025;-77
2023/05/07 00:46:27;;;;;;;8.55;5.35;;;15.40;99.90;;;;;;5008324;28;20033;-77
2023/05/07 00:48:53;;;;;;;10.95;5.53;;;15.40;99.90;;;;;;5009097;28;20057;-76
2023/05/07 00:51:23;;;;;;;5.82;3.83;;;15.40;99.90;;;;;;5005743;28;20124;-76
2023/05/07 00:53:52;;;;;;;5.15;4.07;;;15.40;99.90;;;;;;5007872;28;20032;-76
2023/05/07 00:56:17;;;;;;;4.88;3.83;;;15.30;99.90;;;;;;5003892;28;20060;-77
2023/05/07 00:58:46;;;;;;;4.55;3.72;;;15.30;99.90;;;;;;4995461;28;20058;-77
2023/05/07 01:01:12;;;;;;;8.23;4.35;;;15.30;99.90;;;;;;5007034;28;20014;-77
2023/05/07 01:03:40;;;;;;;6.65;3.67;;;15.30;99.90;;;;;;5010106;28;20029;-77
2023/05/07 01:06:07;;;;;;;7.43;3.95;;;15.30;99.90;;;;;;5011669;28;20037;-77
2023/05/07 01:08:34;;;;;;;6.60;4.20;;;15.30;99.90;;;;;;5005245;28;20046;-76
2023/05/07 01:11:00;;;;;;;10.13;4.43;;;15.30;99.90;;;;;;5009288;28;20030;-77
2023/05/07 01:13:27;;;;;;;7.68;4.50;;;15.30;99.90;;;;;;5008780;28;20056;-77
2023/05/07 01:15:53;;;;;;;10.10;4.75;;;15.20;99.90;;;;;;5010003;28;20026;-78
2023/05/07 01:18:18;;;;;;;11.18;5.28;;;15.20;99.90;;;;;;5013428;28;20138;-77
2023/05/07 01:20:45;;;;;;;7.00;3.90;;;15.20;99.90;;;;;;5018141;28;20032;-78
2023/05/07 01:23:11;;;;;;;7.40;3.53;;;15.20;99.90;;;;;;5014842;28;20038;-77
2023/05/07 01:25:43;;;;;;;9.48;3.90;;;15.10;99.90;;;;;;5013517;28;20026;-77
2023/05/07 01:28:08;;;;;;;5.95;4.05;;;15.10;99.90;;;;;;5032270;23;20751;-76
2023/05/07 01:30:35;;;;;;;6.63;4.53;;;15.10;99.90;;;;;;5011874;28;20022;-75
2023/05/07 01:33:10;;;;;;;9.43;5.00;;;15.10;99.90;;;;;;5011029;28;20021;-75
2023/05/07 01:35:41;;;;;;;7.45;4.63;;;15.10;99.90;;;;;;5028603;28;20026;-74
2023/05/07 01:38:08;;;;;;;11.38;4.70;;;15.10;99.90;;;;;;5013018;28;20022;-75
2023/05/07 01:40:37;;;;;;;9.48;4.43;;;15.00;99.90;;;;;;4999329;28;20028;-76
2023/05/07 01:43:03;;;;;;;8.23;4.63;;;15.00;99.90;;;;;;5010953;28;20084;-75
2023/05/07 01:45:30;;;;;;;7.97;4.50;;;15.00;99.90;;;;;;5006678;28;20034;-75
2023/05/07 01:47:58;;;;;;;8.20;4.93;;;15.00;99.90;;;;;;5010198;28;20037;-75
2023/05/07 01:50:25;;;;;;;8.25;5.30;;;15.00;99.90;;;;;;4992514;28;20037;-75
2023/05/07 01:52:52;;;;;;;7.50;5.10;;;14.90;99.90;;;;;;4994470;28;20027;-75
2023/05/07 01:55:17;;;;;;;7.20;4.82;;;14.90;99.90;;;;;;5012110;28;20029;-75
2023/05/07 01:57:43;;;;;;;8.55;5.72;;;14.90;99.90;;;;;;5011920;28;20026;-75
2023/05/07 02:00:09;;;;;;;9.82;5.15;;;14.90;99.90;;;;;;5009319;28;20045;-75
2023/05/07 02:02:35;;;;;;;8.85;4.93;;;14.90;99.90;;;;;;5008541;28;20317;-75
2023/05/07 02:05:01;;;;;;;13.40;5.47;;;14.80;99.90;;;;;;5010163;28;20030;-75
2023/05/07 02:07:27;;;;;;;12.73;5.13;;;14.80;99.90;;;;;;4996098;28;20101;-75
2023/05/07 02:09:55;;;;;;;8.05;4.03;;;14.70;99.90;;;;;;5005538;28;20036;-75
2023/05/07 02:12:26;;;;;;;8.82;5.03;;;14.70;99.90;;;;;;5006469;28;20014;-75
2023/05/07 02:14:52;;;;;;;7.18;4.20;;;14.70;99.90;;;;;;5007199;28;20030;-75
2023/05/07 02:17:18;;;;;;;5.30;3.90;;;14.60;99.90;;;;;;5008925;28;20044;-75
2023/05/07 02:19:46;;;;;;;5.47;4.32;;;14.60;99.90;;;;;;5003466;28;20022;-75
2023/05/07 02:22:17;;;;;;;8.13;4.45;;;14.60;99.90;;;;;;5009700;28;20041;-75
2023/05/07 02:24:46;;;;;;;5.55;3.70;;;14.60;99.90;;;;;;5005888;28;20096;-76
2023/05/07 02:27:18;;;;;;;6.78;3.90;;;14.60;99.90;;;;;;5003487;28;20025;-75
2023/05/07 02:29:49;;;;;;;5.90;3.53;;;14.50;99.90;;;;;;5009553;28;20029;-75
2023/05/07 02:32:15;;;;;;;7.78;3.22;;;14.50;99.90;;;;;;5010034;28;20053;-75
2023/05/07 02:34:41;;;;;;;7.03;3.67;;;14.40;99.90;;;;;;5011042;28;20547;-75
2023/05/07 02:37:06;;;;;;;7.53;3.35;;;14.40;99.90;;;;;;5010244;28;20138;-76
2023/05/07 02:39:32;;;;;;;5.78;3.60;;;14.40;99.90;;;;;;5012450;28;20037;-77
2023/05/07 02:41:57;;;;;;;4.43;3.90;;;14.40;99.90;;;;;;5006930;28;20112;-77
2023/05/07 02:44:23;;;;;;;10.02;3.67;;;14.30;99.90;;;;;;5007851;28;20030;-77
2023/05/07 02:46:49;;;;;;;6.32;3.80;;;14.30;99.90;;;;;;5011711;28;20018;-76
2023/05/07 02:49:17;;;;;;;7.25;3.35;;;14.30;99.90;;;;;;5006894;28;20080;-77
2023/05/07 02:51:43;;;;;;;8.30;5.00;;;14.30;99.90;;;;;;5010848;28;20027;-77
2023/05/07 02:54:11;;;;;;;4.78;3.78;;;14.20;99.90;;;;;;5009607;28;20032;-77
2023/05/07 02:56:37;;;;;;;7.60;4.47;;;14.10;99.90;;;;;;5010148;28;20081;-77
2023/05/07 02:59:03;;;;;;;6.45;4.03;;;14.10;99.90;;;;;;5010960;28;20037;-74
2023/05/07 03:01:35;;;;;;;6.72;4.82;;;14.10;99.90;;;;;;4992332;28;20061;-75
2023/05/07 03:04:01;;;;;;;5.38;4.13;;;14.10;99.90;;;;;;5009720;28;20029;-76
2023/05/07 03:06:26;;;;;;;5.50;4.30;;;14.00;99.90;;;;;;5016009;28;20052;-75
2023/05/07 03:08:55;;;;;;;4.30;3.65;;;14.00;99.90;;;;;;5009190;28;20080;-76
2023/05/07 03:11:21;;;;;;;7.53;4.22;;;14.00;99.90;;;;;;5011127;28;20120;-76
2023/05/07 03:13:48;;;;;;;5.70;3.65;;;14.00;99.90;;;;;;5009419;28;20129;-75
2023/05/07 03:16:20;;;;;;;4.32;3.28;;;13.90;99.90;;;;;;4991901;28;20033;-74
2023/05/07 03:18:46;;;;;;;6.35;3.67;;;13.90;99.90;;;;;;5010561;28;20038;-75
2023/05/07 03:21:11;;;;;;;7.50;3.40;;;13.80;99.90;;;;;;5009975;28;20478;-75
2023/05/07 03:23:43;;;;;;;5.47;3.55;;;13.80;99.90;;;;;;5012116;28;20030;-75
2023/05/07 03:26:09;;;;;;;7.20;3.80;;;13.80;99.90;;;;;;5010351;28;20040;-76
2023/05/07 03:28:41;;;;;;;11.15;4.10;;;13.70;99.90;;;;;;5011276;28;20029;-76
2023/05/07 03:31:06;;;;;;;6.30;3.83;;;13.70;99.90;;;;;;5009739;28;20040;-76
2023/05/07 03:33:34;;;;;;;8.75;3.47;;;13.70;99.90;;;;;;5009100;28;20030;-75
2023/05/07 03:36:06;;;;;;;8.63;3.30;;;13.60;99.90;;;;;;5007269;28;20049;-75
2023/05/07 03:38:32;;;;;;;4.82;3.30;;;13.60;99.90;;;;;;5007934;28;20026;-75
2023/05/07 03:41:03;;;;;;;4.63;3.50;;;13.60;99.90;;;;;;5013470;28;20101;-77
2023/05/07 03:43:29;;;;;;;6.53;3.78;;;13.50;99.90;;;;;;5010904;28;20037;-76
2023/05/07 03:45:54;;;;;;;7.97;3.55;;;13.50;99.90;;;;;;4995166;28;20097;-76
2023/05/07 03:48:20;;;;;;;5.93;3.58;;;13.40;99.90;;;;;;5012244;28;20396;-76
2023/05/07 03:50:51;;;;;;;5.45;3.50;;;13.50;99.90;;;;;;5013139;28;20029;-77
2023/05/07 03:53:17;;;;;;;4.72;3.50;;;13.40;99.90;;;;;;5007291;28;20026;-77
2023/05/07 03:55:43;;;;;;;4.25;3.65;;;13.40;99.90;;;;;;5012068;28;20105;-76
2023/05/07 03:58:08;;;;;;;5.72;3.78;;;13.30;99.90;;;;;;5006043;28;20023;-76
2023/05/07 04:00:38;;;;;;;6.97;3.83;;;13.30;99.90;;;;;;5012377;28;20101;-76
2023/05/07 04:03:06;;;;;;;5.72;3.70;;;13.30;99.90;;;;;;5012012;28;20049;-75
2023/05/07 04:05:32;;;;;;;7.00;3.90;;;13.30;99.90;;;;;;5014054;28;20425;-76
2023/05/07 04:07:58;;;;;;;6.47;3.45;;;13.20;99.90;;;;;;5005200;28;20037;-76
2023/05/07 04:10:28;;;;;;;6.18;3.53;;;13.20;99.90;;;;;;5010424;28;20065;-77
2023/05/07 04:12:54;;;;;;;5.80;3.53;;;13.20;99.90;;;;;;5008397;28;20087;-75
2023/05/07 04:15:25;;;;;;;7.50;3.45;;;13.20;99.90;;;;;;5012069;28;20034;-76
2023/05/07 04:17:57;;;;;;;7.55;3.75;;;13.20;99.90;;;;;;5010513;28;20034;-75
2023/05/07 04:20:23;;;;;;;6.88;4.28;;;13.20;99.90;;;;;;5005748;28;20030;-74
2023/05/07 04:22:52;;;;;;;5.90;3.88;;;13.20;99.90;;;;;;5007996;28;20034;-76
2023/05/07 04:25:20;;;;;;;8.45;3.95;;;13.20;99.90;;;;;;4998779;28;20018;-76
2023/05/07 04:27:46;;;;;;;5.95;3.72;;;13.20;99.90;;;;;;5011952;28;20090;-75
2023/05/07 04:30:12;;;;;;;4.60;3.53;;;13.20;99.90;;;;;;5006515;28;20022;-76
2023/05/07 04:32:41;;;;;;;6.07;3.72;;;13.30;99.90;;;;;;5011854;28;20022;-75
2023/05/07 04:35:10;;;;;;;6.88;3.92;;;13.30;99.90;;;;;;5011339;28;20940;-75
2023/05/07 04:37:35;;;;;;;5.65;3.95;;;13.30;99.90;;;;;;5009071;28;20116;-75
2023/05/07 04:40:05;;;;;;;6.40;3.63;;;13.20;99.90;;;;;;5004578;28;20045;-75
2023/05/07 04:42:34;;;;;;;5.13;4.18;;;13.30;99.90;;;;;;5002315;28;20040;-75
2023/05/07 04:45:00;;;;;;;4.97;4.18;;;13.30;99.90;;;;;;5003694;28;20029;-75
2023/05/07 04:47:26;;;;;;;6.75;3.55;;;13.30;99.90;;;;;;5004453;28;20045;-76
2023/05/07 04:50:01;;;;;;;4.72;3.80;;;13.30;99.90;;;;;;4994965;28;20531;-75
2023/05/07 04:52:30;;;;;;;9.18;4.80;;;13.30;99.90;;;;;;5007551;28;20085;-75
2023/05/07 04:55:02;;;;;;;7.45;4.15;;;13.30;99.90;;;;;;4993279;28;20124;-75
2023/05/07 04:57:34;;;;;;;8.95;4.13;;;13.40;99.90;;;;;;4995638;28;20455;-74
2023/05/07 05:00:00;;;;;;;6.57;4.40;;;13.40;99.90;;;;;;5003994;28;20105;-75
2023/05/07 05:02:26;;;;;;;6.65;4.22;;;13.50;99.90;;;;;;4997723;28;20037;-75
2023/05/07 05:04:58;;;;;;;8.48;4.50;;;13.50;99.90;;;;;;4989602;28;20496;-76
2023/05/07 05:07:28;;;;;;;6.87;4.90;;;13.60;99.90;;;;;;5006808;28;20496;-76
2023/05/07 05:09:55;;;;;;;10.32;4.85;;;13.70;99.90;;;;;;5008888;28;20033;-74
2023/05/07 05:12:21;;;;;;;8.07;5.28;;;13.90;99.90;;;;;;5004457;28;20026;-76
2023/05/07 05:14:56;;;;;;;8.32;6.00;;;14.00;99.90;;;;;;5004815;28;20030;-75
2023/05/07 05:17:25;;;;;;;11.85;5.38;;;14.10;99.90;;;;;;5006070;28;20278;-77
2023/05/07 05:19:59;;;;;;;7.20;5.57;;;14.20;99.90;;;;;;4951530;28;20715;-77
2023/05/07 05:22:29;;;;;;;7.80;5.00;;;14.30;99.90;;;;;;5007507;28;20034;-76
2023/05/07 05:25:01;;;;;;;6.28;4.65;;;14.40;99.90;;;;;;5006229;28;20038;-76
2023/05/07 05:27:39;;;;;;;9.77;5.00;;;14.50;99.90;;;;;;5005836;28;20030;-76
2023/05/07 05:30:05;;;;;;;10.85;4.88;;;14.60;99.90;;;;;;5005555;28;20030;-69
2023/05/07 05:32:32;;;;;;;7.65;4.32;;;14.70;99.90;;;;;;5001774;28;20034;-76
2023/05/07 05:34:58;;;;;;;7.03;4.65;;;14.70;99.90;;;;;;5001728;28;20147;-76
2023/05/07 05:37:24;;;;;;;6.55;4.72;;;14.80;99.90;;;;;;5007166;28;20026;-76
2023/05/07 05:39:50;;;;;;;7.90;4.53;;;14.80;99.90;;;;;;5006914;28;20026;-76
2023/05/07 05:42:18;;;;;;;5.70;3.90;;;14.90;99.90;;;;;;5003042;28;20452;-75
2023/05/07 05:44:44;;;;;;;6.10;3.85;;;14.90;99.90;;;;;;5005229;28;20052;-75
2023/05/07 05:47:10;;;;;;;6.43;4.50;;;15.00;99.90;;;;;;5004706;28;20552;-76
2023/05/07 05:49:36;;;;;;;6.97;4.80;;;15.00;99.90;;;;;;5003289;28;20029;-76
2023/05/07 05:52:02;;;;;;;6.95;3.90;;;15.00;99.90;;;;;;5007995;28;20030;-76
2023/05/07 05:54:33;;;;;;;7.20;3.78;;;15.10;99.90;;;;;;5005610;28;20026;-76
2023/05/07 05:56:59;;;;;;;4.85;3.95;;;15.10;99.90;;;;;;4988623;28;20103;-75
2023/05/07 05:59:25;;;;;;;7.00;4.70;;;15.10;99.90;;;;;;5005665;28;20604;-75
2023/05/07 06:01:52;;;;;;;7.80;4.07;;;15.20;99.90;;;;;;5008513;28;20042;-76
2023/05/07 06:04:17;;;;;;;7.40;4.38;;;15.20;99.90;;;;;;5005717;28;20053;-76
2023/05/07 06:06:43;;;;;;;7.15;4.38;;;15.30;99.90;;;;;;5007572;28;20033;-76
2023/05/07 06:09:15;;;;;;;6.03;4.20;;;15.30;99.90;;;;;;5003923;28;20034;-76
2023/05/07 06:11:40;;;;;;;8.30;4.25;;;15.40;99.90;;;;;;5009541;28;20102;-76
2023/05/07 06:14:06;;;;;;;5.95;4.32;;;15.40;99.90;;;;;;5008681;28;20143;-76
2023/05/07 06:16:38;;;;;;;9.32;4.47;;;15.40;99.90;;;;;;5007994;28;20076;-75
2023/05/07 06:19:04;;;;;;;6.60;4.15;;;15.50;99.90;;;;;;5009001;28;20088;-77
2023/05/07 06:21:30;;;;;;;6.63;4.75;;;15.60;99.90;;;;;;5012101;28;20018;-76
2023/05/07 06:23:56;;;;;;;8.43;3.80;;;15.60;99.90;;;;;;5013429;28;20381;-76
2023/05/07 06:26:21;;;;;;;5.32;3.60;;;15.70;99.90;;;;;;4998922;28;20061;-76
2023/05/07 06:28:50;;;;;;;6.53;4.85;;;15.70;99.90;;;;;;5011650;28;20026;-77
2023/05/07 06:31:20;;;;;;;7.80;3.95;;;15.70;99.90;;;;;;4989108;28;20044;-77
2023/05/07 06:33:45;;;;;;;7.57;4.40;;;15.80;99.90;;;;;;5015555;28;20421;-76
2023/05/07 06:36:15;;;;;;;3.95;3.42;;;15.90;99.90;;;;;;5012241;28;20061;-77
2023/05/07 06:38:43;;;;;;;3.58;3.20;;;15.90;99.90;;;;;;5010790;28;20120;-76
2023/05/07 06:41:12;;;;;;;4.88;3.15;;;16.00;99.90;;;;;;5015413;28;20022;-77
2023/05/07 06:43:40;;;;;;;5.13;3.67;;;16.00;99.90;;;;;;5014744;28;20083;-76
2023/05/07 06:46:07;;;;;;;4.70;3.50;;;16.10;99.90;;;;;;5015038;28;20026;-76
2023/05/07 06:48:32;;;;;;;4.50;3.63;;;16.20;99.90;;;;;;5013136;28;20104;-76
2023/05/07 06:51:16;;;;;;;6.80;4.40;;;16.20;99.90;;;;;;5014561;28;20062;-76
2023/05/07 06:53:41;;;;;;;5.72;3.83;;;16.20;99.90;;;;;;5013423;28;20461;-76
2023/05/07 06:56:07;;;;;;;6.05;4.85;;;16.20;99.90;;;;;;5013421;28;20061;-77
2023/05/07 06:58:33;;;;;;;9.88;7.85;;;16.30;99.90;;;;;;5013087;28;20022;-76
2023/05/07 07:00:58;;;;;;;7.35;6.57;;;16.40;99.90;;;;;;4998138;28;20504;-77
2023/05/07 07:03:24;;;;;;;8.30;6.30;;;16.40;99.90;;;;;;5011516;28;20117;-77
2023/05/07 07:05:53;;;;;;;10.98;5.30;;;16.40;99.90;;;;;;5011854;28;20096;-77
2023/05/07 07:08:25;;;;;;;6.55;4.55;;;16.50;99.90;;;;;;5013585;28;20918;-77
2023/05/07 07:10:50;;;;;;;8.80;4.35;;;16.50;99.90;;;;;;5010418;28;20040;-76
2023/05/07 07:13:28;;;;;;;8.27;4.10;;;16.50;99.90;;;;;;4995002;28;20392;-77
2023/05/07 07:15:54;;;;;;;6.50;4.43;;;16.50;99.90;;;;;;5009508;28;20026;-77
2023/05/07 07:18:20;;;;;;;9.55;4.03;;;16.60;99.90;;;;;;5016637;28;20092;-77
2023/05/07 07:20:46;;;;;;;9.00;4.15;;;16.70;99.90;;;;;;5007425;28;20653;-77
2023/05/07 07:23:14;;;;;;;8.80;4.72;;;16.80;99.90;;;;;;4993207;28;20041;-77
2023/05/07 07:25:40;;;;;;;5.57;4.22;;;16.80;99.90;;;;;;5011682;28;20029;-77
2023/05/07 07:28:06;;;;;;;8.07;4.72;;;16.80;99.90;;;;;;5016755;28;20091;-79
2023/05/07 07:30:31;;;;;;;9.95;4.90;;;16.90;99.90;;;;;;5013485;28;20516;-79
2023/05/07 07:33:02;;;;;;;6.90;4.85;;;16.90;99.90;;;;;;5009688;28;20151;-78
2023/05/07 07:35:31;;;;;;;7.90;5.43;;;17.00;99.90;;;;;;5004191;28;20105;-78
2023/05/07 07:37:57;;;;;;;13.38;5.63;;;17.10;99.90;;;;;;5010729;28;20037;-79
2023/05/07 07:40:35;;;;;;;7.70;5.20;;;17.10;99.90;;;;;;5014184;28;20026;-79
2023/05/07 07:43:01;;;;;;;9.43;4.32;;;17.20;99.90;;;;;;5011763;28;20030;-78
2023/05/07 07:45:27;;;;;;;5.88;4.13;;;17.40;99.90;;;;;;5013870;28;20045;-78
2023/05/07 07:47:56;;;;;;;6.47;4.43;;;17.40;99.90;;;;;;5009572;28;20040;-80
2023/05/07 07:50:24;;;;;;;5.43;3.60;;;17.50;99.90;;;;;;5014256;28;20017;-78
2023/05/07 07:52:50;;;;;;;4.20;3.40;;;17.60;99.90;;;;;;5013093;28;20101;-78
2023/05/07 07:55:22;;;;;;;3.85;3.17;;;17.70;99.90;;;;;;5012862;28;20053;-79
2023/05/07 07:57:49;;;;;;;5.75;3.60;;;17.70;99.90;;;;;;5011868;28;20084;-80
2023/05/07 08:00:17;;;;;;;6.97;3.58;;;17.70;99.90;;;;;;5018892;28;20022;-78
2023/05/07 08:02:43;;;;;;;5.15;3.80;;;17.80;99.90;;;;;;5022086;28;20036;-78
2023/05/07 08:05:15;;;;;;;4.82;3.35;;;17.80;99.90;;;;;;5015776;28;20034;-79
2023/05/07 08:07:53;;;;;;;4.53;3.35;;;17.90;99.90;;;;;;5012556;28;20468;-79
2023/05/07 08:10:27;;;;;;;5.05;3.65;;;17.90;99.90;;;;;;5012366;28;20021;-78
2023/05/07 08:12:53;;;;;;;4.30;3.05;;;17.90;99.90;;;;;;5011009;28;20044;-79
2023/05/07 08:15:22;;;;;;;5.15;3.50;;;17.90;99.90;;;;;;4997444;28;20025;-79
2023/05/07 08:17:47;;;;;;;7.13;3.70;;;17.90;99.90;;;;;;4995169;28;20030;-78
2023/05/07 08:20:16;;;;;;;4.13;3.15;;;17.90;99.90;;;;;;5010343;28;20093;-78
2023/05/07 08:22:45;;;;;;;4.93;3.17;;;17.80;99.90;;;;;;5006872;28;20420;-78
2023/05/07 08:25:10;;;;;;;6.30;3.60;;;17.90;99.90;;;;;;5013163;28;20022;-79
2023/05/07 08:27:48;;;;;;;4.20;3.17;;;17.80;99.90;;;;;;5012426;28;20037;-78
2023/05/07 08:30:29;;;;;;;4.82;3.67;;;17.90;99.90;;;;;;5014906;28;20030;-78
2023/05/07 08:32:55;;;;;;;5.90;3.90;;;17.90;99.90;;;;;;5003909;28;20045;-77
2023/05/07 08:35:21;;;;;;;5.82;3.70;;;17.90;99.90;;;;;;5010755;28;20080;-78
2023/05/07 08:37:49;;;;;;;5.47;3.65;;;17.90;99.90;;;;;;5003941;28;20026;-76
2023/05/07 08:40:15;;;;;;;6.35;3.53;;;17.80;99.90;;;;;;4990639;28;20029;-77
2023/05/07 08:42:41;;;;;;;4.95;3.10;;;17.80;99.90;;;;;;5005448;28;20033;-77
2023/05/07 08:45:13;;;;;;;6.45;3.65;;;17.80;99.90;;;;;;5009335;28;20401;-77
2023/05/07 08:47:48;;;;;;;5.20;4.00;;;17.80;99.90;;;;;;5004900;28;20423;-77
2023/05/07 08:50:14;;;;;;;4.47;3.65;;;17.70;99.90;;;;;;5005028;28;20033;-76
2023/05/07 08:52:41;;;;;;;4.68;3.50;;;17.70;99.90;;;;;;5006081;28;20030;-76
2023/05/07 08:55:08;;;;;;;5.75;3.78;;;17.70;99.90;;;;;;5008847;28;20033;-77
2023/05/07 08:57:33;;;;;;;4.47;3.47;;;17.70;99.90;;;;;;5010866;28;20022;-78
2023/05/07 08:59:59;;;;;;;6.90;3.80;;;17.70;99.90;;;;;;5005972;28;20030;-77
2023/05/07 09:02:25;;;;;;;6.20;4.07;;;17.80;99.90;;;;;;5008316;28;20068;-76
2023/05/07 09:04:50;;;;;;;5.18;3.17;;;17.90;99.90;;;;;;5006399;28;21711;-79
2023/05/07 09:07:16;;;;;;;5.97;3.80;;;18.00;99.90;;;;;;4991282;28;20034;-79
2023/05/07 09:09:44;;;;;;;7.35;3.67;;;18.00;99.90;;;;;;5006486;28;20030;-78
2023/05/07 09:12:10;;;;;;;7.75;3.40;;;18.10;99.90;;;;;;5012137;28;20026;-78
2023/05/07 09:14:35;;;;;;;5.20;3.65;;;18.20;99.90;;;;;;5010766;28;20048;-79
2023/05/07 09:17:01;;;;;;;5.70;3.67;;;18.30;99.90;;;;;;5016587;28;20029;-77
2023/05/07 09:19:27;;;;;;;5.55;3.67;;;18.50;99.90;;;;;;5011088;28;20026;-77
2023/05/07 09:22:04;;;;;;;4.97;3.67;;;18.50;99.90;;;;;;5007562;28;20115;-77
2023/05/07 09:24:34;;;;;;;4.78;3.28;;;18.60;99.90;;;;;;5007511;28;20029;-76
2023/05/07 09:27:13;;;;;;;8.73;3.60;;;18.70;99.90;;;;;;5008352;28;20057;-78
2023/05/07 09:29:42;;;;;;;3.88;3.22;;;18.80;99.90;;;;;;5007624;28;20033;-77
2023/05/07 09:32:08;;;;;;;5.57;2.90;;;18.90;99.90;;;;;;5008350;28;20092;-79
2023/05/07 09:34:41;;;;;;;5.70;3.17;;;19.00;99.90;;;;;;5009630;28;20453;-77
2023/05/07 09:37:07;;;;;;;5.40;3.07;;;19.10;99.90;;;;;;4992011;28;20113;-77
2023/05/07 09:39:45;;;;;;;3.70;2.88;;;19.20;99.90;;;;;;5015161;28;20072;-78
2023/05/07 09:42:15;;;;;;;5.60;3.08;;;19.30;99.90;;;;;;5013540;28;20021;-78
2023/05/07 09:44:47;;;;;;;7.95;3.00;;;19.40;99.90;;;;;;5014329;28;20710;-77
2023/05/07 09:47:24;;;;;;;4.25;2.90;;;19.40;99.90;;;;;;5014250;28;20038;-78
2023/05/07 09:49:55;;;;;;;4.35;2.40;;;19.60;99.90;;;;;;5010201;28;20033;-78
2023/05/07 09:52:28;;;;;;;5.65;2.83;;;19.60;99.90;;;;;;4998522;28;20029;-79
2023/05/07 09:54:57;;;;;;;7.03;2.70;;;19.70;99.90;;;;;;4996894;28;20574;-77
2023/05/07 09:57:26;;;;;;;5.45;2.55;;;19.80;99.90;;;;;;5011393;28;20036;-78
2023/05/07 09:59:57;;;;;;;4.15;2.60;;;19.90;99.90;;;;;;5010848;28;20037;-78
2023/05/07 10:02:27;;;;;;;3.63;2.40;;;20.00;99.90;;;;;;5012718;28;20030;-79
2023/05/07 10:04:54;;;;;;;2.38;1.92;;;20.10;99.90;;;;;;5015542;28;20030;-76
2023/05/07 10:07:21;;;;;;;2.72;1.95;;;20.20;99.90;;;;;;5017264;28;20032;-79
2023/05/07 10:09:47;;;;;;;6.47;2.85;;;20.30;99.90;;;;;;5011948;28;20026;-79
2023/05/07 10:12:12;;;;;;;5.50;2.00;;;20.40;99.90;;;;;;5010279;28;20025;-78
2023/05/07 10:14:41;;;;;;;4.78;2.38;;;20.40;99.90;;;;;;5010624;28;20037;-79
2023/05/07 10:17:08;;;;;;;5.10;2.40;;;20.60;99.90;;;;;;5012539;28;20014;-78
2023/05/07 10:19:38;;;;;;;3.35;2.03;;;20.70;99.90;;;;;;5010548;28;20029;-80
2023/05/07 10:22:06;;;;;;;2.83;1.70;;;20.80;99.90;;;;;;5004053;28;20038;-78
2023/05/07 10:24:37;;;;;;;5.55;1.92;;;20.90;99.70;;;;;;5010387;28;20029;-78
2023/05/07 10:27:06;;;;;;;2.42;1.88;;;21.00;99.10;;;;;;5006804;28;20076;-79
2023/05/07 10:29:50;;;;;;;3.08;1.40;;;21.10;98.50;;;;;;5007596;28;20033;-78
2023/05/07 10:32:38;;;;;;;3.00;2.10;;;21.20;97.80;;;;;;4995087;28;20381;-77
2023/05/07 10:35:09;;;;;;;2.65;1.92;;;21.30;98.50;;;;;;5006410;28;20041;-79
2023/05/07 10:37:35;;;;;;;3.90;1.88;;;21.40;98.80;;;;;;4998035;28;20026;-79
2023/05/07 10:40:02;;;;;;;4.57;1.80;;;21.50;98.80;;;;;;5013994;28;20018;-78
2023/05/07 10:42:31;;;;;;;2.25;2.05;;;21.60;98.40;;;;;;5010347;28;20063;-78
2023/05/07 10:44:56;;;;;;;4.05;2.08;;;21.80;98.30;;;;;;5004452;28;20108;-79
2023/05/07 10:47:22;;;;;;;5.20;2.13;;;21.90;98.10;;;;;;5013708;28;20058;-79
2023/05/07 10:49:48;;;;;;;2.45;1.88;;;21.90;97.50;;;;;;5010677;28;20069;-78
2023/05/07 10:52:18;;;;;;;4.20;1.92;;;21.90;96.00;;;;;;4997946;28;20036;-79
2023/05/07 10:54:46;;;;;;;3.17;1.60;;;21.90;95.80;;;;;;5014599;28;20030;-78
2023/05/07 10:57:35;;;;;;;4.05;1.42;;;22.00;95.20;;;;;;5017153;28;20018;-79
2023/05/07 11:00:03;;;;;;;4.68;1.80;;;21.90;94.70;;;;;;5010587;28;20079;-79
2023/05/07 11:03:04;;;;;;;3.53;2.15;;;21.90;94.90;;;;;;5011316;28;20089;-79
2023/05/07 11:05:32;;;;;;;3.30;1.70;;;21.90;94.40;;;;;;5011576;28;20044;-80
2023/05/07 11:08:02;;;;;;;3.05;1.75;;;21.80;94.50;;;;;;5009811;28;20040;-80
2023/05/07 11:10:56;;;;;;;8.18;3.75;;;21.80;94.50;;;;;;5005655;28;20033;-80
2023/05/07 11:13:41;;;;;;;5.07;2.63;;;21.80;94.60;;;;;;5012639;28;20036;-78
2023/05/07 11:16:36;;;;;;;6.32;2.78;;;21.70;95.30;;;;;;5011195;28;20113;-80
2023/05/07 11:19:02;;;;;;;3.20;2.00;;;21.70;97.40;;;;;;5008347;28;20104;-80
2023/05/07 11:21:41;;;;;;;4.72;2.22;;;21.60;98.40;;;;;;5009728;28;20033;-78
2023/05/07 11:24:10;;;;;;;6.85;2.50;;;21.60;99.80;;;;;;5011342;28;20432;-77
2023/05/07 11:26:47;;;;;;;7.25;3.08;;;21.40;99.90;;;;;;5005810;28;20026;-79
2023/05/07 11:29:18;;;;;;;9.48;4.55;;;21.30;99.90;;;;;;5007693;28;20133;-78
2023/05/07 11:31:52;;;;;;;8.90;3.28;;;20.80;99.90;;;;;;4991027;28;20547;-79
2023/05/07 11:34:26;;;;;;;5.75;3.05;;;20.40;99.90;;;;;;5007757;28;20450;-78
2023/05/07 11:36:52;;;;;;;9.35;3.63;;;19.90;99.90;;;;;;5004821;28;20096;-79
2023/05/07 11:39:25;;;;;;;7.13;3.63;;;19.70;99.90;;;;;;5007950;28;20384;-78
2023/05/07 11:41:51;;;;;;;6.93;2.95;;;19.40;99.90;;;;;;5007909;28;20041;-77
2023/05/07 11:44:17;;;;;;;7.10;3.60;;;19.30;99.90;;;;;;4990008;28;21356;-77
2023/05/07 11:46:48;;;;;;;5.65;2.58;;;19.10;99.90;;;;;;5011633;28;20022;-79
2023/05/07 11:49:20;;;;;;;5.68;2.42;;;19.10;99.90;;;;;;5012201;28;20029;-78
2023/05/07 11:51:46;;;;;;;6.20;2.80;;;19.10;99.90;;;;;;4991204;28;20041;-78
2023/05/07 11:54:15;;;;;;;5.22;2.85;;;19.10;99.90;;;;;;5012988;28;20128;-77
2023/05/07 11:56:41;;;;;;;6.90;3.20;;;19.10;99.90;;;;;;5010307;28;20060;-77
2023/05/07 11:59:07;;;;;;;8.57;4.15;;;19.10;99.90;;;;;;5010564;28;20061;-77
2023/05/07 12:01:35;;;;;;;4.28;2.40;;;19.20;99.90;;;;;;5012307;28;20469;-77
2023/05/07 12:04:03;;;;;;;5.78;2.90;;;19.20;99.90;;;;;;5012125;28;20167;-77
2023/05/07 12:06:29;;;;;;;5.60;2.60;;;19.20;99.90;;;;;;5009156;28;20036;-78
2023/05/07 12:08:55;;;;;;;5.65;3.47;;;19.20;99.90;;;;;;5010287;28;20026;-79
2023/05/07 12:11:25;;;;;;;4.43;2.80;;;19.20;99.90;;;;;;5012146;28;20428;-77
2023/05/07 12:13:51;;;;;;;5.30;2.53;;;19.20;99.90;;;;;;4995989;28;20559;-77
2023/05/07 12:16:20;;;;;;;2.90;2.10;;;19.20;99.90;;;;;;5009420;28;20018;-77
2023/05/07 12:18:46;;;;;;;3.45;2.30;;;19.20;99.90;;;;;;5011005;28;20030;-78
2023/05/07 12:21:17;;;;;;;4.82;2.28;;;19.20;99.90;;;;;;5005232;28;20520;-77
2023/05/07 12:23:45;;;;;;;3.42;2.30;;;19.20;99.90;;;;;;5010571;28;20040;-80
2023/05/07 12:26:11;;;;;;;4.13;1.90;;;19.10;99.90;;;;;;5006710;28;20057;-77
2023/05/07 12:28:38;;;;;;;4.05;2.03;;;19.10;99.90;;;;;;5007225;28;20030;-79
2023/05/07 12:31:05;;;;;;;4.45;2.30;;;19.10;99.90;;;;;;5007846;28;20088;-77
2023/05/07 12:33:32;;;;;;;4.10;2.08;;;19.10;99.90;;;;;;5008319;28;20022;-77
2023/05/07 12:36:02;;;;;;;6.32;2.05;;;19.10;99.90;;;;;;5007835;28;20416;-78
2023/05/07 12:38:40;;;;;;;5.45;1.90;;;19.10;99.90;;;;;;5009125;28;20472;-78
2023/05/07 12:41:08;;;;;;;4.32;2.00;;;19.00;99.90;;;;;;5003918;28;20091;-77
2023/05/07 12:43:43;;;;;;;6.80;3.42;;;19.00;99.90;;;;;;5008876;28;20071;-77
2023/05/07 12:46:09;;;;;;;10.23;5.63;;;19.00;99.90;;;;;;5010258;28;21603;-77
2023/05/07 12:48:43;;;;;;;11.55;7.95;;;19.00;99.90;;;;;;4992927;28;20022;-76
2023/05/07 12:51:11;;;;;;;12.50;7.07;;;19.00;99.90;;;;;;5009182;28;20018;-76
2023/05/07 12:53:42;;;;;;;11.32;6.68;;;19.00;99.90;;;;;;5005911;28;20208;-78